Time;durP1;ratioP1;P1;durP2;ratioP2;P2;SDS_P1;SDS_P2;PMS_P1;PMS_P2;Temp;Humidity;BMP_temperature;BMP_pressure;BME280_temperature;BME280_humidity;BME280_pressure;Samples;Min_cycle;Max_cycle;Signal;HPM_P1;HPM_P2
2023/09/15 00:00:34;;;;;;;7.80;2.30;;;;;;;22.88;55.99;100549.31;5082783;28;20197;-62
2023/09/15 00:03:00;;;;;;;6.03;2.23;;;;;;;22.90;55.91;100546.84;5091847;28;20175;-62
2023/09/15 00:05:26;;;;;;;4.70;2.33;;;;;;;22.91;56.85;100543.56;5094192;28;20183;-62
2023/09/15 00:07:53;;;;;;;4.10;2.00;;;;;;;22.90;56.52;100549.72;5091167;28;20899;-62
2023/09/15 00:10:22;;;;;;;4.43;2.17;;;;;;;22.91;56.76;100549.31;5088296;28;20476;-62
2023/09/15 00:12:47;;;;;;;4.97;2.13;;;;;;;22.89;55.47;100551.81;5078351;28;20223;-63
2023/09/15 00:15:14;;;;;;;5.20;1.93;;;;;;;22.87;55.95;100545.59;5065121;28;20994;-62
2023/09/15 00:17:40;;;;;;;6.10;2.40;;;;;;;22.71;56.10;100547.16;5073387;28;20270;-62
2023/09/15 00:20:13;;;;;;;5.50;2.53;;;;;;;22.76;56.96;100552.53;5087247;28;20436;-62
2023/09/15 00:22:55;;;;;;;7.00;2.47;;;;;;;22.75;56.57;100542.25;5072243;28;20429;-62
2023/09/15 00:25:22;;;;;;;10.50;3.23;;;;;;;22.67;57.66;100547.16;5066848;28;20429;-62
2023/09/15 00:27:52;;;;;;;9.50;3.30;;;;;;;22.62;58.04;100550.41;5082120;28;20428;-63
2023/09/15 00:30:18;;;;;;;9.67;3.40;;;;;;;22.63;57.58;100545.50;5073895;28;20873;-62
2023/09/15 00:32:48;;;;;;;13.43;3.87;;;;;;;22.54;58.00;100548.75;5085115;28;20432;-63
2023/09/15 00:35:22;;;;;;;9.10;2.90;;;;;;;22.49;57.59;100539.66;5075893;28;20457;-62
2023/09/15 00:37:49;;;;;;;13.90;3.00;;;;;;;22.49;57.95;100546.25;5069146;28;20443;-61
2023/09/15 00:40:15;;;;;;;9.13;3.00;;;;;;;22.38;58.13;100541.59;5088763;28;20475;-61
2023/09/15 00:42:42;;;;;;;21.40;3.13;;;;;;;22.32;58.00;100540.34;5086635;28;20464;-62
2023/09/15 00:45:11;;;;;;;12.30;3.10;;;;;;;22.34;57.23;100538.72;5075236;28;20439;-62
2023/09/15 00:47:38;;;;;;;8.27;3.47;;;;;;;22.34;57.65;100530.09;5087741;28;20850;-62
2023/09/15 00:50:05;;;;;;;5.73;2.80;;;;;;;22.40;57.09;100530.50;5069647;28;20447;-61
2023/09/15 00:52:31;;;;;;;9.80;2.60;;;;;;;22.27;57.19;100530.03;5029636;28;20460;-62
2023/09/15 00:54:56;;;;;;;8.00;2.77;;;;;;;22.00;58.36;100534.34;5050833;28;20432;-62
2023/09/15 00:57:22;;;;;;;6.37;2.27;;;;;;;21.99;57.71;100531.88;5068226;28;20234;-62
2023/09/15 00:59:48;;;;;;;7.47;2.40;;;;;;;22.13;57.38;100532.78;5054372;28;20190;-62
2023/09/15 01:02:14;;;;;;;5.47;2.30;;;;;;;21.89;58.28;100527.69;5066968;28;20189;-62
2023/09/15 01:04:40;;;;;;;8.20;2.37;;;;;;;21.68;57.94;100530.38;5062718;28;20428;-62
2023/09/15 01:07:05;;;;;;;8.90;2.67;;;;;;;21.97;57.53;100528.59;5063112;28;20201;-61
2023/09/15 01:09:31;;;;;;;8.17;2.30;;;;;;;22.11;57.34;100518.00;5057718;28;20249;-62
2023/09/15 01:11:57;;;;;;;5.57;2.30;;;;;;;22.26;56.71;100522.63;5080508;28;20223;-61
2023/09/15 01:14:22;;;;;;;10.30;2.77;;;;;;;22.36;56.70;100521.88;5100435;28;20455;-61
2023/09/15 01:16:53;;;;;;;13.37;2.37;;;;;;;22.41;56.62;100509.97;5101582;28;20179;-62
2023/09/15 01:19:53;;;;;;;7.53;2.63;;;;;;;22.46;56.88;100511.66;5089185;28;20831;-62
2023/09/15 01:22:36;;;;;;;8.00;2.30;;;;;;;22.51;56.45;100512.13;5081929;28;21322;-62
2023/09/15 01:25:24;;;;;;;4.60;2.23;;;;;;;22.52;56.43;100507.19;5081667;28;20479;-62
2023/09/15 01:28:11;;;;;;;6.43;2.60;;;;;;;22.52;56.37;100499.38;5051362;28;20433;-62
2023/09/15 01:30:36;;;;;;;11.90;2.50;;;;;;;22.53;56.38;100501.03;5088861;28;20486;-62
2023/09/15 01:33:03;;;;;;;5.80;2.77;;;;;;;22.53;56.54;100497.34;5069669;28;20445;-62
2023/09/15 01:35:28;;;;;;;5.67;2.33;;;;;;;22.51;56.71;100494.00;5069264;28;20196;-62
2023/09/15 01:37:53;;;;;;;9.33;2.97;;;;;;;22.50;56.64;100496.09;5100204;28;20858;-62
2023/09/15 01:40:19;;;;;;;4.17;2.07;;;;;;;22.51;56.43;100506.38;5070446;28;20291;-62
2023/09/15 01:42:48;;;;;;;10.60;2.63;;;;;;;22.52;56.68;100496.50;5090431;28;20186;-62
2023/09/15 01:45:13;;;;;;;8.53;2.90;;;;;;;22.49;56.63;100500.19;5065218;28;20197;-62
2023/09/15 01:47:39;;;;;;;6.40;3.17;;;;;;;22.47;56.81;100501.84;5068126;28;20448;-62
2023/09/15 01:50:05;;;;;;;4.57;2.10;;;;;;;22.46;56.22;100501.00;5049983;28;20179;-62
2023/09/15 01:52:30;;;;;;;4.97;2.27;;;;;;;22.45;56.32;100507.16;5073747;28;20178;-62
2023/09/15 01:54:56;;;;;;;5.50;2.07;;;;;;;22.46;56.72;100503.88;5086936;28;20428;-62
2023/09/15 01:57:22;;;;;;;5.70;2.33;;;;;;;22.45;56.41;100493.59;5088332;28;20167;-62
2023/09/15 01:59:47;;;;;;;7.23;2.50;;;;;;;22.47;56.85;100501.84;5098533;28;20297;-61
2023/09/15 02:02:13;;;;;;;6.10;2.00;;;;;;;22.47;57.04;100508.41;5104780;28;20218;-62
2023/09/15 02:04:38;;;;;;;6.60;2.27;;;;;;;22.48;56.42;100501.41;5084938;28;20194;-62
2023/09/15 02:07:04;;;;;;;6.83;2.50;;;;;;;22.48;56.76;100503.47;5069413;28;20532;-62
2023/09/15 02:09:29;;;;;;;5.70;2.40;;;;;;;22.45;56.49;100505.09;5083677;28;20252;-62
2023/09/15 02:11:54;;;;;;;7.37;2.60;;;;;;;22.46;56.57;100511.66;5084830;28;20253;-61
2023/09/15 02:14:20;;;;;;;6.47;2.50;;;;;;;22.45;56.50;100510.84;5086814;28;20179;-61
2023/09/15 02:16:45;;;;;;;5.30;2.40;;;;;;;22.46;57.01;100509.63;5069476;28;20578;-65
2023/09/15 02:19:11;;;;;;;5.63;2.40;;;;;;;22.44;56.77;100505.47;5087081;28;20194;-65
2023/09/15 02:21:36;;;;;;;6.03;2.37;;;;;;;22.46;56.47;100512.50;5087540;28;20580;-65
2023/09/15 02:24:02;;;;;;;5.80;2.30;;;;;;;22.47;57.10;100501.84;5074756;28;20186;-65
2023/09/15 02:26:28;;;;;;;6.30;2.50;;;;;;;22.44;56.73;100514.09;5063958;28;20259;-65
2023/09/15 02:28:53;;;;;;;7.10;2.03;;;;;;;22.43;56.24;100506.69;5087930;28;20540;-65
2023/09/15 02:31:19;;;;;;;5.20;2.40;;;;;;;22.42;56.64;100505.88;5089945;28;20580;-65
2023/09/15 02:33:45;;;;;;;5.30;2.40;;;;;;;22.43;56.85;100495.19;5088955;28;20547;-65
2023/09/15 02:36:10;;;;;;;11.80;2.63;;;;;;;22.41;56.44;100495.59;5103069;28;20177;-65
2023/09/15 02:38:36;;;;;;;5.17;2.70;;;;;;;22.43;56.96;100495.19;5087335;28;20807;-65
2023/09/15 02:41:01;;;;;;;5.60;2.67;;;;;;;22.43;57.29;100498.88;5094003;28;20182;-65
2023/09/15 02:43:27;;;;;;;7.87;2.37;;;;;;;22.44;56.70;100491.09;5094689;28;20196;-65
2023/09/15 02:45:52;;;;;;;5.63;2.40;;;;;;;22.45;56.99;100495.63;5084639;28;20187;-65
2023/09/15 02:48:18;;;;;;;6.13;2.63;;;;;;;22.44;56.91;100496.84;5056483;28;20187;-65
2023/09/15 02:50:43;;;;;;;5.63;2.30;;;;;;;22.42;56.65;100488.59;5079734;28;20209;-65
2023/09/15 02:53:09;;;;;;;6.83;2.80;;;;;;;22.42;56.91;100485.72;5088234;28;20186;-65
2023/09/15 02:55:37;;;;;;;7.40;2.63;;;;;;;22.40;56.57;100493.94;5063982;28;20191;-65
2023/09/15 02:58:03;;;;;;;6.00;2.10;;;;;;;22.38;56.10;100490.63;5098457;28;20186;-65
2023/09/15 03:00:30;;;;;;;5.30;2.30;;;;;;;22.39;56.80;100486.56;5115313;28;20414;-65
2023/09/15 03:02:56;;;;;;;6.50;2.53;;;;;;;22.37;56.70;100491.06;5091239;28;20536;-64
2023/09/15 03:05:22;;;;;;;4.33;2.07;;;;;;;22.37;56.61;100494.75;5095765;28;20443;-65
2023/09/15 03:07:47;;;;;;;6.00;2.80;;;;;;;22.35;56.28;100496.38;5074745;28;20167;-65
2023/09/15 03:10:13;;;;;;;3.90;1.70;;;;;;;22.35;56.17;100496.38;5042763;28;20249;-65
2023/09/15 03:12:38;;;;;;;5.80;2.03;;;;;;;22.33;56.68;100495.97;5091772;28;20230;-65
2023/09/15 03:15:06;;;;;;;6.20;2.27;;;;;;;22.31;56.60;100493.47;5090768;28;20186;-65
2023/09/15 03:17:37;;;;;;;6.20;2.67;;;;;;;22.33;56.53;100490.22;5074612;28;20163;-65
2023/09/15 03:20:13;;;;;;;4.50;2.20;;;;;;;22.33;56.90;100488.13;5094081;28;20419;-65
2023/09/15 03:22:40;;;;;;;6.70;2.17;;;;;;;22.34;56.98;100484.06;5088010;28;20445;-65
2023/09/15 03:25:05;;;;;;;10.63;2.50;;;;;;;22.36;56.87;100484.47;5073434;28;21140;-65
2023/09/15 03:27:31;;;;;;;7.37;2.40;;;;;;;22.36;57.16;100490.22;5058367;28;20433;-61
2023/09/15 03:29:57;;;;;;;5.95;2.40;;;;;;;22.37;57.48;100479.56;5079083;28;20188;-62
2023/09/15 03:32:22;;;;;;;7.10;2.30;;;;;;;22.35;56.14;100482.81;5098733;28;20435;-61
2023/09/15 03:34:48;;;;;;;9.50;2.30;;;;;;;22.34;56.46;100469.69;5094471;28;20502;-62
2023/09/15 03:37:13;;;;;;;6.73;2.60;;;;;;;22.35;56.57;100476.22;5076641;28;20186;-61
2023/09/15 03:39:39;;;;;;;8.60;2.73;;;;;;;22.32;56.54;100480.75;5077158;28;20594;-61
2023/09/15 03:42:04;;;;;;;4.27;2.27;;;;;;;22.29;56.26;100478.69;5085680;28;20217;-62
2023/09/15 03:44:30;;;;;;;6.67;2.80;;;;;;;22.31;56.36;100472.50;5079264;28;20179;-62
2023/09/15 03:46:55;;;;;;;8.10;2.30;;;;;;;22.31;56.88;100464.72;5094614;28;20190;-62
2023/09/15 03:49:20;;;;;;;5.90;2.33;;;;;;;22.32;56.64;100477.06;5091981;28;20206;-62
2023/09/15 03:51:47;;;;;;;3.43;1.90;;;;;;;22.33;56.67;100472.94;5094036;28;20213;-62
2023/09/15 03:54:12;;;;;;;8.77;2.83;;;;;;;22.32;56.50;100466.34;5063423;28;20182;-62
2023/09/15 03:56:37;;;;;;;7.37;2.30;;;;;;;22.32;56.84;100460.59;5092527;28;20787;-62
2023/09/15 03:59:06;;;;;;;6.83;2.80;;;;;;;22.32;56.52;100465.56;5112260;28;20217;-62
2023/09/15 04:01:32;;;;;;;7.63;2.57;;;;;;;22.32;56.79;100466.34;5109782;28;20181;-62
2023/09/15 04:03:59;;;;;;;5.77;2.30;;;;;;;22.33;57.14;100464.31;5069701;28;20466;-62
2023/09/15 04:06:24;;;;;;;7.40;2.20;;;;;;;22.35;57.34;100471.31;5074071;28;20206;-62
2023/09/15 04:08:50;;;;;;;6.03;2.50;;;;;;;22.35;57.42;100468.44;5091691;28;20505;-62
2023/09/15 04:11:15;;;;;;;5.90;2.47;;;;;;;22.35;56.56;100468.44;5091417;28;20206;-62
2023/09/15 04:13:41;;;;;;;6.80;2.77;;;;;;;22.33;56.35;100468.00;5089237;28;20264;-61
2023/09/15 04:16:06;;;;;;;6.27;2.83;;;;;;;22.32;56.78;100472.09;5090881;28;20166;-62
2023/09/15 04:18:32;;;;;;;4.90;2.30;;;;;;;22.31;56.72;100478.25;5086586;28;20167;-62
2023/09/15 04:20:57;;;;;;;5.40;2.10;;;;;;;22.32;57.00;100472.09;5087433;28;20887;-61
2023/09/15 04:23:23;;;;;;;8.67;2.30;;;;;;;22.32;57.05;100468.44;5088422;28;20194;-61
2023/09/15 04:25:49;;;;;;;4.80;2.20;;;;;;;22.31;57.19;100466.75;5070754;28;20926;-62
2023/09/15 04:28:14;;;;;;;6.47;2.30;;;;;;;22.32;56.58;100471.31;5087082;28;20190;-62
2023/09/15 04:30:39;;;;;;;5.13;2.20;;;;;;;22.32;57.33;100466.34;5072568;28;20202;-62
2023/09/15 04:33:05;;;;;;;4.83;2.30;;;;;;;22.27;56.95;100468.81;5089462;28;20542;-62
2023/09/15 04:35:30;;;;;;;4.30;2.60;;;;;;;22.28;57.18;100470.44;5091343;28;20537;-65
2023/09/15 04:37:56;;;;;;;6.00;2.60;;;;;;;22.29;56.41;100474.97;5072642;28;20626;-65
2023/09/15 04:40:21;;;;;;;9.87;2.90;;;;;;;22.31;56.85;100470.47;5055913;28;20506;-65
2023/09/15 04:42:47;;;;;;;4.40;2.40;;;;;;;22.32;57.66;100477.88;5083494;28;20690;-65
2023/09/15 04:45:12;;;;;;;9.77;2.27;;;;;;;22.33;57.14;100473.75;5070200;28;20175;-65
2023/09/15 04:47:38;;;;;;;4.70;2.30;;;;;;;22.33;57.47;100472.94;5092169;28;20537;-64
2023/09/15 04:50:06;;;;;;;4.67;2.30;;;;;;;22.31;56.75;100481.97;5076121;28;20213;-65
2023/09/15 04:52:31;;;;;;;6.10;2.70;;;;;;;22.31;56.69;100481.13;5073495;28;20178;-65
2023/09/15 04:54:56;;;;;;;11.03;2.80;;;;;;;22.30;57.20;100474.56;5102159;28;20416;-65
2023/09/15 04:57:22;;;;;;;12.13;2.30;;;;;;;22.32;56.88;100479.94;5070059;28;20182;-65
2023/09/15 04:59:48;;;;;;;8.40;2.87;;;;;;;22.33;57.28;100482.38;5092858;28;20182;-65
2023/09/15 05:02:14;;;;;;;5.67;2.33;;;;;;;22.32;57.67;100483.63;5092063;28;20645;-65
2023/09/15 05:04:40;;;;;;;10.03;2.70;;;;;;;22.33;57.35;100481.56;5089082;28;20416;-64
2023/09/15 05:07:05;;;;;;;4.97;2.47;;;;;;;22.31;57.70;100479.09;5063442;28;20555;-65
2023/09/15 05:09:31;;;;;;;5.57;2.37;;;;;;;22.32;57.42;100477.88;5066230;28;20199;-65
2023/09/15 05:11:56;;;;;;;8.80;2.60;;;;;;;22.31;57.76;100476.22;5081621;28;20221;-65
2023/09/15 05:14:22;;;;;;;8.20;2.80;;;;;;;22.31;57.92;100481.13;5087826;28;20646;-65
2023/09/15 05:16:48;;;;;;;4.60;2.67;;;;;;;22.31;57.92;100487.72;5088814;28;20238;-65
2023/09/15 05:19:14;;;;;;;5.97;2.10;;;;;;;22.31;57.70;100492.63;5094038;28;20443;-65
2023/09/15 05:21:39;;;;;;;10.47;2.80;;;;;;;22.30;57.09;100491.00;5101687;28;20445;-64
2023/09/15 05:24:05;;;;;;;7.90;2.10;;;;;;;22.31;57.91;100498.41;5091800;28;20220;-65
2023/09/15 05:26:31;;;;;;;6.00;2.27;;;;;;;22.31;58.01;100498.41;5071636;28;20166;-65
2023/09/15 05:28:57;;;;;;;9.77;2.93;;;;;;;22.31;57.68;100498.41;5090478;28;20266;-65
2023/09/15 05:31:25;;;;;;;5.60;2.13;;;;;;;22.30;57.72;100502.50;5092052;28;20210;-65
2023/09/15 05:33:53;;;;;;;5.20;2.70;;;;;;;22.30;57.28;100496.75;5073949;28;20185;-65
2023/09/15 05:36:18;;;;;;;8.13;2.30;;;;;;;22.29;57.11;100500.84;5059723;28;20796;-65
2023/09/15 05:38:45;;;;;;;6.17;2.47;;;;;;;22.29;57.46;100501.69;5081084;28;20470;-65
2023/09/15 05:41:11;;;;;;;7.07;2.53;;;;;;;22.29;57.52;100506.63;5081070;28;20205;-65
2023/09/15 05:43:36;;;;;;;6.17;2.80;;;;;;;22.27;56.38;100507.00;5083222;28;20951;-65
2023/09/15 05:46:01;;;;;;;5.57;2.40;;;;;;;22.26;56.67;100510.28;5076588;28;20178;-65
2023/09/15 05:48:27;;;;;;;5.87;2.43;;;;;;;22.25;57.17;100518.09;5068468;28;20193;-65
2023/09/15 05:50:53;;;;;;;7.80;2.77;;;;;;;22.26;56.99;100514.00;5069864;28;20187;-65
2023/09/15 05:53:19;;;;;;;5.60;2.43;;;;;;;22.26;57.71;100511.13;5080400;28;20190;-65
2023/09/15 05:55:44;;;;;;;6.97;2.73;;;;;;;22.27;57.36;100517.72;5066905;28;20178;-65
2023/09/15 05:58:09;;;;;;;7.30;2.97;;;;;;;22.26;57.28;100514.00;5080387;28;20946;-65
2023/09/15 06:00:35;;;;;;;7.50;2.20;;;;;;;22.27;57.45;100514.84;5073503;28;20657;-65
2023/09/15 06:03:01;;;;;;;6.30;2.90;;;;;;;22.27;57.26;100521.38;5066922;28;20175;-65
2023/09/15 06:05:27;;;;;;;4.63;2.20;;;;;;;22.28;56.89;100514.41;5091068;28;20225;-65
2023/09/15 06:07:52;;;;;;;8.80;3.13;;;;;;;22.26;57.32;100519.75;5082083;28;20190;-65
2023/09/15 06:10:18;;;;;;;8.93;2.83;;;;;;;22.26;57.13;100516.03;5071586;28;20448;-65
2023/09/15 06:12:43;;;;;;;6.20;2.57;;;;;;;22.25;56.98;100509.47;5081188;28;20231;-65
2023/09/15 06:15:10;;;;;;;7.73;2.50;;;;;;;22.26;57.31;100516.03;5077524;28;20650;-65
2023/09/15 06:17:35;;;;;;;5.80;2.27;;;;;;;22.26;57.35;100508.25;5069766;28;20183;-64
2023/09/15 06:20:01;;;;;;;5.67;2.27;;;;;;;22.26;57.59;100508.25;5086866;28;20444;-64
2023/09/15 06:22:26;;;;;;;6.73;2.90;;;;;;;22.25;56.79;100508.63;5086436;28;20194;-65
2023/09/15 06:24:52;;;;;;;6.33;2.40;;;;;;;22.23;56.72;100514.78;5066639;28;20507;-65
2023/09/15 06:27:17;;;;;;;7.13;2.80;;;;;;;22.22;56.76;100507.38;5079038;28;20177;-65
2023/09/15 06:29:43;;;;;;;7.53;3.17;;;;;;;22.18;57.64;100515.16;5069597;28;20201;-65
2023/09/15 06:32:09;;;;;;;10.10;3.33;;;;;;;22.20;57.39;100506.13;5077531;28;20263;-65
2023/09/15 06:34:34;;;;;;;6.00;2.40;;;;;;;22.16;56.71;100497.50;5051566;28;20452;-65
2023/09/15 06:37:01;;;;;;;5.67;2.80;;;;;;;22.07;56.80;100493.34;5055626;28;20182;-64
2023/09/15 06:39:27;;;;;;;9.30;3.07;;;;;;;22.08;56.91;100492.91;5071052;28;20629;-65
2023/09/15 06:41:53;;;;;;;7.50;3.40;;;;;;;22.08;56.90;100501.53;5088517;28;20795;-65
2023/09/15 06:44:19;;;;;;;6.87;2.93;;;;;;;22.08;57.01;100486.34;5091059;28;20450;-65
2023/09/15 06:46:45;;;;;;;6.93;2.83;;;;;;;22.06;56.28;100486.75;5074874;28;20383;-65
2023/09/15 06:49:11;;;;;;;6.33;2.70;;;;;;;22.06;57.58;100498.25;5082373;28;21100;-65
2023/09/15 06:51:36;;;;;;;9.97;2.87;;;;;;;21.96;57.51;100489.53;5088509;28;20210;-65
2023/09/15 06:54:01;;;;;;;4.80;2.50;;;;;;;21.97;56.91;100497.75;5068709;28;20428;-64
2023/09/15 06:56:27;;;;;;;5.30;2.50;;;;;;;21.98;57.02;100499.41;5090803;28;20660;-65
2023/09/15 06:58:53;;;;;;;8.07;2.40;;;;;;;21.89;57.60;100496.06;5077077;28;20182;-65
2023/09/15 07:01:19;;;;;;;6.23;2.60;;;;;;;21.92;57.29;100498.13;5080451;28;20186;-65
2023/09/15 07:03:44;;;;;;;6.57;2.90;;;;;;;21.98;57.22;100501.47;5087590;28;20179;-65
2023/09/15 07:06:09;;;;;;;9.50;3.23;;;;;;;22.01;57.12;100494.91;5067819;28;20194;-65
2023/09/15 07:08:35;;;;;;;7.20;2.97;;;;;;;22.02;57.21;100493.72;5070555;28;20197;-65
2023/09/15 07:11:00;;;;;;;10.53;2.70;;;;;;;22.03;56.97;100492.47;5080847;28;20214;-65
2023/09/15 07:13:26;;;;;;;8.33;3.50;;;;;;;21.96;57.73;100490.38;5082373;28;20263;-65
2023/09/15 07:15:52;;;;;;;8.10;3.10;;;;;;;21.98;57.67;100493.66;5082221;28;20874;-65
2023/09/15 07:18:18;;;;;;;5.73;3.00;;;;;;;21.98;57.81;100490.78;5075413;28;20445;-65
2023/09/15 07:20:43;;;;;;;5.30;2.60;;;;;;;22.00;57.87;100488.34;5076406;28;20539;-65
2023/09/15 07:23:09;;;;;;;5.27;2.43;;;;;;;21.92;57.96;100492.38;5082668;28;20691;-65
2023/09/15 07:25:34;;;;;;;8.13;3.70;;;;;;;21.11;60.18;100502.28;5034244;28;20210;-65
2023/09/15 07:28:00;;;;;;;13.10;3.57;;;;;;;21.27;60.32;100488.50;5028010;28;20429;-64
2023/09/15 07:30:25;;;;;;;13.20;4.50;;;;;;;21.33;60.50;100491.84;5062857;28;20198;-65
2023/09/15 07:32:51;;;;;;;15.00;4.03;;;;;;;20.62;62.74;100498.78;5062096;28;20482;-64
2023/09/15 07:35:17;;;;;;;6.70;3.67;;;;;;;21.21;63.93;100495.81;5061181;28;20190;-64
2023/09/15 07:37:42;;;;;;;17.50;4.70;;;;;;;21.75;62.85;100487.34;5061193;28;20253;-64
2023/09/15 07:40:08;;;;;;;9.90;4.70;;;;;;;21.91;62.55;100492.78;5060526;28;20711;-64
2023/09/15 07:42:34;;;;;;;9.00;3.50;;;;;;;21.99;63.43;100480.97;5061572;28;20175;-64
2023/09/15 07:44:59;;;;;;;17.80;3.80;;;;;;;21.69;64.08;100482.34;5045948;28;20238;-64
2023/09/15 07:47:25;;;;;;;10.80;3.67;;;;;;;21.95;62.92;100485.84;5063549;28;20186;-64
2023/09/15 07:49:51;;;;;;;8.43;3.30;;;;;;;22.05;62.57;100484.25;5062437;28;20182;-64
2023/09/15 07:52:18;;;;;;;6.23;2.50;;;;;;;22.14;61.49;100479.00;5031773;28;20202;-64
2023/09/15 07:54:44;;;;;;;12.10;3.73;;;;;;;22.20;61.42;100483.97;5045452;28;20442;-63
2023/09/15 07:57:09;;;;;;;13.30;3.43;;;;;;;22.22;60.86;100478.63;5064004;28;20493;-64
2023/09/15 07:59:34;;;;;;;9.87;4.07;;;;;;;22.24;61.01;100479.06;5066684;28;20190;-64
2023/09/15 08:02:00;;;;;;;9.77;3.23;;;;;;;22.27;60.82;100480.31;5071101;28;20178;-63
2023/09/15 08:04:25;;;;;;;5.93;3.33;;;;;;;22.13;61.06;100478.16;5083850;28;20186;-65
2023/09/15 08:06:51;;;;;;;8.80;2.90;;;;;;;21.74;63.01;100485.69;5081861;28;20187;-62
2023/09/15 08:09:17;;;;;;;7.90;3.53;;;;;;;21.93;62.68;100479.66;5072668;28;20684;-62
2023/09/15 08:11:43;;;;;;;12.20;4.17;;;;;;;21.99;62.27;100477.25;5061131;28;20511;-61
2023/09/15 08:14:08;;;;;;;10.03;3.53;;;;;;;21.86;60.91;100473.03;5078821;28;20193;-62
2023/09/15 08:16:34;;;;;;;12.30;3.77;;;;;;;21.63;61.56;100481.84;5084161;28;20198;-61
2023/09/15 08:18:59;;;;;;;10.37;3.53;;;;;;;21.93;61.51;100470.22;5083804;28;20187;-62
2023/09/15 08:21:25;;;;;;;9.57;3.43;;;;;;;21.80;60.62;100469.72;5079997;28;20231;-62
2023/09/15 08:23:51;;;;;;;6.50;3.30;;;;;;;21.69;61.94;100470.84;5084452;28;20599;-63
2023/09/15 08:26:16;;;;;;;8.13;3.70;;;;;;;21.87;61.64;100464.00;5078914;28;20191;-63
2023/09/15 08:28:42;;;;;;;8.20;3.40;;;;;;;21.77;61.17;100467.63;5057388;28;20178;-62
2023/09/15 08:31:08;;;;;;;8.23;3.60;;;;;;;21.62;61.42;100462.97;5072811;28;20206;-62
2023/09/15 08:33:34;;;;;;;7.97;3.83;;;;;;;21.27;62.40;100465.53;5083342;28;20187;-62
2023/09/15 08:35:59;;;;;;;7.20;3.53;;;;;;;21.43;61.73;100463.19;5080670;28;20935;-62
2023/09/15 08:38:25;;;;;;;7.67;3.43;;;;;;;21.74;61.76;100454.09;5074676;28;20580;-62
2023/09/15 08:40:54;;;;;;;14.17;3.50;;;;;;;21.85;61.28;100457.84;5087303;28;20178;-62
2023/09/15 08:43:21;;;;;;;8.20;3.67;;;;;;;21.38;62.06;100457.81;5046598;28;20187;-62
2023/09/15 08:45:47;;;;;;;9.57;3.47;;;;;;;21.03;63.56;100456.66;5081096;28;20432;-62
2023/09/15 08:48:13;;;;;;;6.30;2.87;;;;;;;21.50;62.64;100451.78;5060556;28;20440;-61
2023/09/15 08:50:38;;;;;;;8.70;4.00;;;;;;;21.44;62.51;100461.16;5072155;28;20305;-61
2023/09/15 08:53:04;;;;;;;8.77;3.37;;;;;;;21.53;62.06;100461.66;5081492;28;20182;-61
2023/09/15 08:55:29;;;;;;;8.60;3.50;;;;;;;21.68;62.10;100458.53;5065875;28;20179;-61
2023/09/15 08:57:58;;;;;;;9.17;2.90;;;;;;;21.87;61.48;100455.38;5073436;28;20532;-61
2023/09/15 09:00:24;;;;;;;6.33;3.00;;;;;;;21.87;61.69;100458.25;5054933;28;20214;-62
2023/09/15 09:02:50;;;;;;;10.97;3.17;;;;;;;21.96;61.18;100453.00;5073170;28;21007;-62
2023/09/15 09:05:16;;;;;;;8.57;3.03;;;;;;;21.91;60.96;100453.38;5078822;28;20270;-62
2023/09/15 09:07:41;;;;;;;8.87;4.40;;;;;;;21.77;61.55;100453.25;5089723;28;20507;-62
2023/09/15 09:10:07;;;;;;;7.63;2.87;;;;;;;21.93;61.19;100450.91;5073957;28;20671;-62
2023/09/15 09:12:32;;;;;;;8.20;3.17;;;;;;;21.93;61.19;100462.41;5060207;28;20239;-62
2023/09/15 09:14:58;;;;;;;10.17;3.10;;;;;;;21.92;61.21;100457.09;5069277;28;20179;-62
2023/09/15 09:17:23;;;;;;;9.63;3.00;;;;;;;21.94;61.48;100464.09;5093930;28;20182;-64
2023/09/15 09:19:49;;;;;;;9.90;3.20;;;;;;;21.98;60.89;100453.41;5071199;28;20182;-64
2023/09/15 09:22:18;;;;;;;5.53;2.97;;;;;;;22.02;61.01;100448.50;5088969;28;20806;-65
2023/09/15 09:24:45;;;;;;;7.27;3.20;;;;;;;22.05;61.03;100462.09;5071808;28;20925;-65
2023/09/15 09:27:11;;;;;;;11.40;3.73;;;;;;;21.98;61.52;100455.47;5079554;28;20421;-65
2023/09/15 09:29:37;;;;;;;5.67;2.67;;;;;;;22.05;61.36;100453.47;5088729;28;20455;-65
2023/09/15 09:32:04;;;;;;;6.70;2.50;;;;;;;21.75;62.66;100449.97;5079791;28;20918;-65
2023/09/15 09:34:29;;;;;;;9.83;3.23;;;;;;;21.79;62.38;100450.00;5069061;28;20518;-65
2023/09/15 09:36:55;;;;;;;6.27;3.30;;;;;;;21.74;62.48;100448.34;5077293;28;20436;-64
2023/09/15 09:39:21;;;;;;;7.10;3.50;;;;;;;21.87;62.45;100443.91;5088398;28;20178;-64
2023/09/15 09:41:47;;;;;;;6.23;2.83;;;;;;;21.99;61.72;100437.00;5034413;28;20229;-65
2023/09/15 09:44:13;;;;;;;7.17;3.07;;;;;;;21.82;62.22;100434.84;5070835;28;20239;-65
2023/09/15 09:46:41;;;;;;;5.30;2.90;;;;;;;21.88;62.83;100428.28;5070511;28;20844;-65
2023/09/15 09:49:07;;;;;;;10.27;3.50;;;;;;;21.73;63.06;100423.66;5052770;28;20567;-65
2023/09/15 09:51:35;;;;;;;7.60;3.17;;;;;;;21.61;63.19;100414.50;5061293;28;20460;-65
2023/09/15 09:54:00;;;;;;;6.17;3.63;;;;;;;21.87;62.82;100402.84;5050146;28;20161;-64
2023/09/15 09:56:26;;;;;;;4.33;2.50;;;;;;;21.98;62.26;100403.72;5077454;28;20944;-65
2023/09/15 09:58:51;;;;;;;5.70;2.67;;;;;;;21.98;62.55;100398.78;5068792;28;20186;-65
2023/09/15 10:01:17;;;;;;;9.93;3.77;;;;;;;22.03;62.25;100391.84;5081715;28;20189;-65
2023/09/15 10:03:42;;;;;;;6.93;3.20;;;;;;;21.95;62.90;100390.97;5087313;28;20178;-65
2023/09/15 10:06:08;;;;;;;5.30;3.63;;;;;;;21.93;62.87;100393.41;5059456;28;20185;-65
2023/09/15 10:08:34;;;;;;;9.33;2.83;;;;;;;22.04;62.18;100384.84;5091119;28;20178;-64
2023/09/15 10:11:00;;;;;;;10.47;4.10;;;;;;;21.98;63.05;100384.41;5087416;28;20478;-65
2023/09/15 10:13:26;;;;;;;7.50;3.77;;;;;;;22.04;63.09;100379.94;5059735;28;20473;-64
2023/09/15 10:15:52;;;;;;;4.53;3.30;;;;;;;22.05;63.16;100386.50;5067328;28;20206;-64
2023/09/15 10:18:18;;;;;;;9.77;3.43;;;;;;;22.02;63.05;100388.13;5056263;28;20422;-64
2023/09/15 10:20:44;;;;;;;7.17;3.10;;;;;;;22.05;63.30;100387.34;5079971;28;21221;-65
2023/09/15 10:23:10;;;;;;;5.00;2.90;;;;;;;22.06;62.89;100386.09;5061510;28;20441;-65
2023/09/15 10:25:41;;;;;;;7.37;4.13;;;;;;;22.00;63.40;100381.97;5064595;28;20511;-65
2023/09/15 10:28:07;;;;;;;9.20;4.13;;;;;;;21.97;65.03;100379.88;5057391;28;20189;-64
2023/09/15 10:30:36;;;;;;;6.50;3.20;;;;;;;22.08;63.50;100380.75;5066993;28;20920;-65
2023/09/15 10:33:03;;;;;;;6.37;3.73;;;;;;;22.09;63.65;100382.44;5067802;28;20171;-64
2023/09/15 10:35:28;;;;;;;7.80;4.80;;;;;;;22.05;63.51;100375.84;5060476;28;20509;-65
2023/09/15 10:37:58;;;;;;;5.60;3.70;;;;;;;22.12;63.82;100375.84;5056855;28;20787;-65
2023/09/15 10:40:24;;;;;;;6.40;3.30;;;;;;;22.13;64.07;100366.00;5062023;28;20637;-64
2023/09/15 10:42:50;;;;;;;8.60;3.47;;;;;;;22.23;63.51;100362.34;5062889;28;20555;-64
2023/09/15 10:45:15;;;;;;;5.50;3.40;;;;;;;22.15;63.51;100360.69;5047582;28;21074;-65
2023/09/15 10:47:41;;;;;;;6.20;4.10;;;;;;;22.15;63.76;100357.81;5075621;28;20437;-64
2023/09/15 10:50:07;;;;;;;5.00;3.23;;;;;;;22.25;63.41;100359.06;5066820;28;20191;-64
2023/09/15 10:52:37;;;;;;;7.17;3.63;;;;;;;22.27;63.31;100354.56;5069153;28;20459;-65
2023/09/15 10:55:03;;;;;;;4.97;3.40;;;;;;;22.31;63.58;100355.41;5080666;28;20182;-65
2023/09/15 10:57:29;;;;;;;5.10;3.20;;;;;;;22.32;63.74;100351.28;5073243;28;21213;-65
2023/09/15 10:59:54;;;;;;;8.97;4.53;;;;;;;22.36;63.48;100351.28;5056208;28;20418;-65
2023/09/15 11:02:20;;;;;;;7.63;3.80;;;;;;;22.30;63.88;100361.56;5071497;28;20151;-65
2023/09/15 11:04:46;;;;;;;9.93;3.47;;;;;;;22.36;63.43;100349.25;5079913;28;20182;-64
2023/09/15 11:07:12;;;;;;;6.43;3.67;;;;;;;22.41;63.37;100354.63;5093071;28;20228;-64
2023/09/15 11:09:40;;;;;;;7.43;3.97;;;;;;;22.38;63.78;100345.97;5053221;28;20456;-65
2023/09/15 11:12:06;;;;;;;6.63;3.87;;;;;;;22.38;64.56;100343.91;5076445;28;20295;-65
2023/09/15 11:14:31;;;;;;;7.03;3.83;;;;;;;22.40;63.74;100338.59;5078898;28;20547;-64
2023/09/15 11:16:57;;;;;;;7.47;3.73;;;;;;;22.48;64.24;100336.59;5088923;28;20218;-65
2023/09/15 11:19:24;;;;;;;5.97;4.07;;;;;;;22.46;63.91;100334.13;5072728;28;20165;-65